WEATHER DATA

YESTERDAY
Time Temp. Dewp. Hum. Wind dir Wind speed Wind gust Bar. 1h Prec. 24h Prec.
00:02 13.8 12.7 93 0 0 1022.7 0.1010 0.0000
00:12 13.8 12.7 93 0 0 1022.9 0.0000 0.0000
00:22 13.7 12.6 93 0 0 1022.9 0.0000 0.0000
00:33 13.6 12.5 93 0 0 1023.1 0.0000 0.0000
00:42 13.5 12.4 93 0 0 1023.3 0.0000 0.0000
00:52 13.4 12.1 92 0 0 1023.4 0.0000 0.0000
01:03 13.4 12.1 92 0 0 1023.4 0.0000 0.0000
01:13 13.3 12 92 0 0 1023.2 0.0000 0.0000
01:28 13.3 12 92 0 0 1023.4 0.0000 0.0000
01:39 13.3 12 92 0 0 1023.2 0.0000 0.0000
01:48 13.2 11.9 92 0 0 1023.1 0.0000 0.0000
01:58 13.1 11.8 92 0 0 1023.3 0.0000 0.0000
02:08 13.1 12 93 0 0 1023.1 0.0000 0.0000
02:19 13.1 12 93 0 0 1023.1 0.0000 0.0000
02:29 13 11.9 93 0 0 1023.1 0.0000 0.0000
02:39 13 11.9 93 0 0 1022.9 0.0000 0.0000
02:49 12.9 11.8 93 0 0 1023 0.0000 0.0000
02:59 12.9 11.8 93 0 0 1023 0.0000 0.0000
03:09 12.9 11.8 93 0 0 1023 0.0000 0.0000
03:19 12.9 11.8 93 0 0 1023.1 0.0000 0.0000
03:30 12.8 11.7 93 0 0 1022.8 0.0000 0.0000
03:40 12.8 11.7 93 0 0 1023 0.0000 0.0000
03:50 12.7 11.6 93 0 0 1023 0.0000 0.0000
03:59 12.7 11.6 93 0 0 1022.8 0.0000 0.0000
04:10 12.7 11.6 93 0 0 1022.6 0.0000 0.0000
04:20 12.7 11.6 93 0 0 1022.9 0.0000 0.0000
04:30 12.6 11.5 93 0 0 1023 0.0000 0.0000
04:40 12.6 11.5 93 0 0 1023.4 0.0000 0.0000
04:51 12.5 11.4 93 0 0 1023.4 0.0000 0.0000
05:01 12.5 11.4 93 0 0 1023.4 0.0000 0.0000
05:10 12.4 11.3 93 0 0 1023.4 0.0000 0.0000
05:21 12.3 11.2 93 0 0 1023.5 0.0000 0.0000
05:31 12.2 11.1 93 0 0 1023.3 0.0000 0.0000
05:41 12.1 11 93 0 0 1023.5 0.0000 0.0000
05:51 12 10.9 93 0 0 1023.6 0.0000 0.0000
06:02 12 10.9 93 0 0 1023.4 0.0000 0.0000
06:12 11.8 10.7 93 0 0 1023.4 0.0000 0.0000
06:21 11.6 10.5 93 0 0 1023.2 0.0000 0.0000
06:32 11.5 10.4 93 0 0 1023.2 0.0000 0.0000
06:42 11.5 10.4 93 0 0 1023 0.0000 0.0000
06:52 11.5 10.4 93 0 0 1022.9 0.0000 0.0000
07:02 11.5 10.4 93 0 0 1023 0.0000 0.0000
07:13 11.4 10.3 93 0 0 1022.9 0.0000 0.0000
07:22 11.4 10.3 93 0 0 1023.2 0.0000 0.0000
07:32 11.4 10.3 93 0 0 1023.3 0.0000 0.0000
07:42 11.4 10.3 93 0 0 1023.5 0.0000 0.0000
07:53 11.5 10.4 93 0 0 1023.6 0.0000 0.0000
08:03 11.4 10.3 93 0 0 1023.7 0.0000 0.0000
08:13 11.4 10.3 93 0 0 1023.6 0.0000 0.0000
08:23 11.4 10.3 93 0 0 1023.6 0.0000 0.0000
08:33 11.4 10.3 93 0 0 1023.6 0.0000 0.0000
08:43 11.5 10.4 93 0 0 1023.9 0.0000 0.0000
08:53 11.5 10.4 93 0 0 1024 0.0000 0.0000
09:04 11.7 10.6 93 0 0 1024.3 0.0000 0.0000
09:14 11.8 10.7 93 0 0 1024.6 0.0000 0.0000
09:24 12 10.9 93 0 0 1024.6 0.0000 0.0000
09:34 12.1 11 93 0 0 1024.7 0.0000 0.0000
09:44 12.1 11 93 0 0 1024.5 0.0000 0.0000
09:54 12.2 11.1 93 0 0 1025 0.1010 0.1000
10:04 12.3 11.2 93 0 0 1024.7 0.1010 0.1000
10:15 12.4 11.3 93 0 0 1024.6 0.1010 0.1000
10:25 12.6 11.5 93 0 0 1024.8 0.1010 0.1000
10:35 12.7 11.6 93 0 0 1025.1 0.1010 0.1000
10:44 12.9 11.6 92 0 0 1025 0.0000 0.1000
10:55 13 11.7 92 0 0 1025.1 0.0000 0.1000
11:05 13.1 11.7 91 0 0 1025.4 0.0000 0.1000
11:15 13.3 11.7 90 0 0 1025.1 0.0000 0.1000
11:25 13.5 11.9 90 0 0 1025 0.0000 0.1000
11:46 13.9 11.6 86 0 0 1025.2 0.0000 0.1000
11:55 14.1 11.8 86 0 0 1025.2 0.0000 0.1000
12:06 14.3 11.8 85 0 0 1025.5 0.0000 0.1000
12:16 14.4 11.6 83 0 0 1025.4 0.0000 0.1000
12:26 14.5 11.5 82 0 0 1025.2 0.0000 0.1000
12:36 14.7 11.3 80 0 0 1025.1 0.0000 0.1000
12:47 14.8 11.4 80 0 0 1024.9 0.0000 0.1000
12:57 15 11.4 79 0 0 1024.7 0.0000 0.1000
13:06 15.2 11.6 79 0 0 1024.5 0.0000 0.1000
13:17 15.3 11.5 78 0 0 1024.6 0.0000 0.1000
13:37 15.6 12 79 0 0 1024.3 0.0000 0.1000
13:47 15.8 12 78 0 0 1024.3 0.0000 0.1000
13:58 15.8 12 78 0 0 1024.1 0.0000 0.1000
14:08 15.9 12.3 79 0 0 1024.1 0.0000 0.1000
14:17 15.9 11.9 77 0 0 1023.9 0.0000 0.1000
14:27 16.1 12.3 78 0 0 1023.8 0.0000 0.1000
14:38 16.2 12 76 0 0 1023.8 0.0000 0.1000
14:48 16.3 11.5 73 0 0 1023.6 0.0000 0.1000
14:58 16.5 12.1 75 0 0 1023.4 0.0000 0.1000
15:08 16.8 11.9 73 0 0 1023.5 0.0000 0.1000
15:19 17.1 12.2 73 0 0 1023.3 0.0000 0.1000
15:28 17.3 12.2 72 0 0 1023.2 0.0000 0.1000
15:38 17.4 12.1 71 0 0 1023.2 0.0000 0.1000
15:49 17.4 12.3 72 0 0 1023.2 0.0000 0.1000
15:59 17.2 11.9 71 0 0 1023.3 0.0000 0.1000
16:09 17 11.9 72 0 0 1023.2 0.0000 0.1000
16:19 17 12.3 74 0 0 1023.3 0.0000 0.1000
16:30 16.9 12 73 0 0 1023 0.0000 0.1000
16:39 16.9 12.4 75 0 0 1023.2 0.0000 0.1000
16:49 16.8 11.9 73 0 0 1023.1 0.0000 0.1000
17:00 16.7 11.6 72 0 0 1023.2 0.0000 0.1000
17:10 16.5 11.6 73 0 0 1023 0.0000 0.1000
17:20 16.4 11.8 74 0 0 1023 0.0000 0.1000
17:30 16.2 12 76 0 0 1022.6 0.0000 0.1000
17:41 16.1 12.1 77 0 0 1022.7 0.0000 0.1000
17:50 16 12.4 79 0 0 1022.9 0.0000 0.1000
18:00 15.7 12.3 80 0 0 1022.8 0.0000 0.1000
18:21 15.3 12.4 83 0 0 1022.8 0.0000 0.1000
18:31 15.1 12.4 84 0 0 1022.8 0.0000 0.1000
18:41 14.8 12.3 85 0 0 1022.7 0.0000 0.1000
19:01 14.3 12.2 87 0 0 1022.9 0.0000 0.1000
19:11 14.1 12 87 0 0 1023.1 0.0000 0.1000
19:27 13.8 11.8 88 0 0 1023.3 0.0000 0.1000
19:36 13.6 11.8 89 0 0 1023.3 0.0000 0.1000
19:46 13.4 11.6 89 0 0 1023.2 0.0000 0.1000
19:56 13.2 11.4 89 0 0 1023.3 0.0000 0.1000
20:07 13 11.2 89 0 0 1023.2 0.0000 0.1000
20:17 12.8 11.2 90 0 0 1023.2 0.0000 0.1000
20:27 12.7 11.1 90 0 0 1023.2 0.0000 0.1000
20:37 12.5 10.9 90 0 0 1023.1 0.0000 0.1000
20:47 12.4 11 91 0 0 1022.8 0.0000 0.1000
20:57 12.2 10.8 91 0 0 1022.8 0.0000 0.1000
21:07 12.1 10.7 91 0 0 1022.7 0.0000 0.1000
21:18 11.9 10.5 91 0 0 1022.4 0.0000 0.1000
21:28 11.8 10.5 92 0 0 1022.4 0.0000 0.1000
21:38 11.7 10.4 92 0 0 1022.6 0.0000 0.1000
21:48 11.6 10.3 92 0 0 1022.6 0.0000 0.1000
21:58 11.6 10.3 92 0 0 1022.6 0.0000 0.1000
22:08 11.4 10.1 92 0 0 1022.7 0.0000 0.1000
22:18 11.4 10.1 92 0 0 1022.6 0.0000 0.1000
22:28 11.2 9.9 92 0 0 1022.7 0.0000 0.1000
22:39 11.1 9.9 92 0 0 1022.5 0.0000 0.1000
22:49 11 9.8 92 0 0 1022.5 0.0000 0.1000
22:58 11 9.8 92 0 0 1022.3 0.0000 0.1000
23:09 10.8 9.6 92 0 0 1022.4 0.0000 0.1000
23:19 10.7 9.5 92 0 0 1022.2 0.0000 0.1000
23:29 10.6 9.4 92 0 0 1022.3 0.0000 0.1000
23:39 10.5 9.3 92 0 0 1022.3 0.0000
23:50 10.4 9.2 92 0 0 1022.2 0.0000

DAY STATISTIC

2019-10-22
TEMPERATURE
AVERAGE
13.4
HIGH
17.4
15:38
LOW
10.4
23:50
PRESSURE
AVERAGE
1023.4
HIGH
1025.5
12:06
LOW
1022.2
23:19
DEWPOINT
AVERAGE
11.3
HIGH
12.7
00:02
LOW
9.2
23:50
HUMIDITY
AVERAGE
88
HIGH
93
00:02
LOW
71
15:38
WIND SPEED
AVERAGE
0.0
HIGH
0.0
19:17
WIND GUST
AVERAGE
0.0
HIGH
0.0
19:17
WIND DIRECTION
PREVAILING
%
PRECIPITATION
RAIN HOUR
0.1
RAIN DAY
0.1
TEMPERATURE (°C)
LOW
10.4
HIGH
17.4
AVERAGE
13.4
PRESSURE (hpa)
LOW
1022.2
HIGH
1025.5
AVERAGE
1023.4
DEVICE